Airfield :
LOGIN :

Register | Disclaimer

   EN    FR    IT 

 










Legend :    VFR   Marginal VFR   IFR   Intensive IFR   Very Intensive IFR
Visi :
Ceiling :
>= 8 km
>= 3000ft
5 to 8 km
1000 to 3000 ft
1500m to 5 km
500 to 1000 ft
800 to 1500m
200 to 500 ft
< 800m
< 200 ft
Symbols :   Thunderstorms  Fog  Heavy snow  Heavy precipitations  Wind > 20 kt
SIGMETs :     Misc.  Thunderstorms  Icing  Turbulence  Mountain Waves  Volcanic Ashes







- Airport Elevation : 512 ft
- IATA code : URO
- Download approach charts


LFOP - Rouen Vallée de Seine

CURRENT METAR :
  • 190700Z AUTO 14007KT CAVOK 13/11 Q1007 NOSIG

EXPIRED METARs :
  • 190630Z AUTO 13006KT CAVOK 12/11 Q1007 NOSIG
  • 190600Z AUTO 13008KT CAVOK 12/11 Q1007 NOSIG
  • 190500Z AUTO 10006KT 8000 NSC 11/10 Q1007
  • 190430Z AUTO 11005KT 8000 NSC 11/10 Q1008
  • 190400Z AUTO 11005KT 8000 NSC 11/10 Q1008

TAF TAF LFOP
Valid from the 19 at 06:00 until the 20 at 06:00 UTC


190500Z 1906/2006 11010KT 8000 NSC
TEMPO 1909/1912 BKN013
TEMPO 1920/2002 20020G30KT 4000 RA BKN012
ATIS : +33 2 35 80 80 34
Met : +33 2 32 86 52 80
No reported NOTAMs for that airfield.



MET'MAP, your aeronautical weather chart ! - Copyright ORBIFLY December 2007 - Disclaimer

ORBIFLY MET'MAP TEAM :

Programming & Development : Alexandra Zaïnal
Concept & Development : Baudouin d'Aumeries
Co-Development & Prog : Marc-Olivier Méhu
Technical & hardware support : Manuel Goepfert

Contact : metmap@orbifly.com




SOURCES & CREDITS :

   NOAA